メインページ
METAR-TAF:

METAR-TAF

空港 :

フジャイラ国際空港

フジャイラ, アラブ首長国連邦

緯度: 25-06N, 経度: 056-20E, 海抜: 28m

現時点の気象観測

当レポートは1時間9分前の17:00(UTC)に作成
南東の風 5kt
気温 26°C
湿度 45%
気圧 1019 hPa
視程: 8000m
高度2500ftの雲はほとんどない

METAR: OMFJ 171700Z 13005KT 8000 FEW025 26/13 Q1019 RMK A3010

時間: 22:09 (18:09 UTC)

予報

当レポートは1時間9分前の17:00(UTC)に作成
予報は17日の 18時(UTC)から 18日の 24時(UTC)まで有効
南東の風 5kt
視程: 8000m
17日の 20時(UTC)から 18日の 03時(UTC)まで一時的に
西/北西の風 5kt
高度3000ftの雲はほとんどない
18日の 06時(UTC)から 18日の 08時(UTC)まで徐々に
の風 8kt
18日の 14時(UTC)から 18日の 16時(UTC)まで徐々に
南/南東の風 4kt

TAF: OMFJ 171700Z 1718/1824 13005KT 8000 NSC TEMPO 1720/1803 29005KT FEW030 BECMG 1806/1808 09008KT BECMG 1814/1816 15004KT

4,000以上の空港の気象観測と天気予報(METAR報とTAF報)

利用可能な観測所は地図上に黄色い丸と赤い丸で示す。

丸の上にカーソルを重ねると観測所名を参照できる。

次にクリックすると気象観測と天気予報を参照できる。

マップの切り替え:黒色「×」印の緑ボタンをクリックして拡大、「-」印の緑ボタンをクリックして縮小、緑色の三角印をクリックして隣りの地図に切り替え


METAR-TAF: